sensor_id;sensor_type;location;lat;lon;timestamp;temperature;humidity
3356;DHT22;1691;52.486;13.374;2023-06-22T00:01:40;22.10;83.00
3356;DHT22;1691;52.486;13.374;2023-06-22T00:04:11;22.10;83.00
3356;DHT22;1691;52.486;13.374;2023-06-22T00:06:46;22.10;83.20
3356;DHT22;1691;52.486;13.374;2023-06-22T00:09:14;22.00;83.40
3356;DHT22;1691;52.486;13.374;2023-06-22T00:11:42;22.00;83.60
3356;DHT22;1691;52.486;13.374;2023-06-22T00:14:14;22.00;83.80
3356;DHT22;1691;52.486;13.374;2023-06-22T00:16:42;21.90;83.80
3356;DHT22;1691;52.486;13.374;2023-06-22T00:19:10;21.90;84.10
3356;DHT22;1691;52.486;13.374;2023-06-22T00:21:42;21.90;84.10
3356;DHT22;1691;52.486;13.374;2023-06-22T00:24:10;21.80;84.50
3356;DHT22;1691;52.486;13.374;2023-06-22T00:26:38;21.80;84.50
3356;DHT22;1691;52.486;13.374;2023-06-22T00:29:09;21.70;84.70
3356;DHT22;1691;52.486;13.374;2023-06-22T00:31:43;21.70;84.90
3356;DHT22;1691;52.486;13.374;2023-06-22T00:34:15;21.70;85.10
3356;DHT22;1691;52.486;13.374;2023-06-22T00:36:51;21.70;85.20
3356;DHT22;1691;52.486;13.374;2023-06-22T00:39:32;21.60;85.40
3356;DHT22;1691;52.486;13.374;2023-06-22T00:42:04;21.60;85.80
3356;DHT22;1691;52.486;13.374;2023-06-22T00:44:38;21.50;86.20
3356;DHT22;1691;52.486;13.374;2023-06-22T00:47:10;21.50;86.40
3356;DHT22;1691;52.486;13.374;2023-06-22T00:49:40;21.50;86.70
3356;DHT22;1691;52.486;13.374;2023-06-22T00:52:23;21.40;86.90
3356;DHT22;1691;52.486;13.374;2023-06-22T00:54:57;21.40;87.10
3356;DHT22;1691;52.486;13.374;2023-06-22T00:57:32;21.40;87.30
3356;DHT22;1691;52.486;13.374;2023-06-22T01:00:06;21.40;87.50
3356;DHT22;1691;52.486;13.374;2023-06-22T01:02:39;21.40;87.70
3356;DHT22;1691;52.486;13.374;2023-06-22T01:05:20;21.30;87.90
3356;DHT22;1691;52.486;13.374;2023-06-22T01:08:16;21.30;88.00
3356;DHT22;1691;52.486;13.374;2023-06-22T01:11:21;21.30;88.40
3356;DHT22;1691;52.486;13.374;2023-06-22T01:14:26;21.30;88.40
3356;DHT22;1691;52.486;13.374;2023-06-22T01:17:02;21.30;88.60
3356;DHT22;1691;52.486;13.374;2023-06-22T01:19:46;21.30;88.80
3356;DHT22;1691;52.486;13.374;2023-06-22T01:22:32;21.20;89.00
3356;DHT22;1691;52.486;13.374;2023-06-22T01:27:58;21.20;89.50
3356;DHT22;1691;52.486;13.374;2023-06-22T01:30:32;21.10;89.70
3356;DHT22;1691;52.486;13.374;2023-06-22T01:33:14;21.10;90.10
3356;DHT22;1691;52.486;13.374;2023-06-22T01:36:02;21.10;90.20
3356;DHT22;1691;52.486;13.374;2023-06-22T01:38:37;21.00;90.30
3356;DHT22;1691;52.486;13.374;2023-06-22T01:41:18;21.00;90.50
3356;DHT22;1691;52.486;13.374;2023-06-22T01:43:51;20.90;90.60
3356;DHT22;1691;52.486;13.374;2023-06-22T01:46:32;20.90;90.80
3356;DHT22;1691;52.486;13.374;2023-06-22T01:49:07;20.90;90.90
3356;DHT22;1691;52.486;13.374;2023-06-22T01:51:47;20.80;91.00
3356;DHT22;1691;52.486;13.374;2023-06-22T01:54:29;20.80;91.20
3356;DHT22;1691;52.486;13.374;2023-06-22T01:57:01;20.80;91.30
3356;DHT22;1691;52.486;13.374;2023-06-22T01:59:59;20.80;91.40
3356;DHT22;1691;52.486;13.374;2023-06-22T02:02:39;20.80;91.60
3356;DHT22;1691;52.486;13.374;2023-06-22T02:05:36;20.80;91.70
3356;DHT22;1691;52.486;13.374;2023-06-22T02:08:22;20.80;91.70
3356;DHT22;1691;52.486;13.374;2023-06-22T02:11:00;20.80;91.80
3356;DHT22;1691;52.486;13.374;2023-06-22T02:13:29;20.80;91.90
3356;DHT22;1691;52.486;13.374;2023-06-22T02:16:00;20.80;92.00
3356;DHT22;1691;52.486;13.374;2023-06-22T02:18:35;20.80;92.00
3356;DHT22;1691;52.486;13.374;2023-06-22T02:21:07;20.70;92.10
3356;DHT22;1691;52.486;13.374;2023-06-22T02:23:38;20.70;92.20
3356;DHT22;1691;52.486;13.374;2023-06-22T02:26:12;20.70;92.30
3356;DHT22;1691;52.486;13.374;2023-06-22T02:28:51;20.70;92.40
3356;DHT22;1691;52.486;13.374;2023-06-22T02:31:32;20.70;92.50
3356;DHT22;1691;52.486;13.374;2023-06-22T02:33:59;20.70;92.60
3356;DHT22;1691;52.486;13.374;2023-06-22T02:36:27;20.70;92.70
3356;DHT22;1691;52.486;13.374;2023-06-22T02:38:57;20.70;92.70
3356;DHT22;1691;52.486;13.374;2023-06-22T02:41:27;20.70;92.90
3356;DHT22;1691;52.486;13.374;2023-06-22T02:43:54;20.70;93.00
3356;DHT22;1691;52.486;13.374;2023-06-22T02:46:22;20.80;93.00
3356;DHT22;1691;52.486;13.374;2023-06-22T02:48:49;20.80;93.10
3356;DHT22;1691;52.486;13.374;2023-06-22T02:51:16;20.80;93.10
3356;DHT22;1691;52.486;13.374;2023-06-22T02:53:43;20.90;93.10
3356;DHT22;1691;52.486;13.374;2023-06-22T02:56:13;20.90;93.10
3356;DHT22;1691;52.486;13.374;2023-06-22T02:58:41;20.90;93.20
3356;DHT22;1691;52.486;13.374;2023-06-22T03:01:08;21.00;93.10
3356;DHT22;1691;52.486;13.374;2023-06-22T03:03:36;21.00;93.10
3356;DHT22;1691;52.486;13.374;2023-06-22T03:06:04;21.00;93.20
3356;DHT22;1691;52.486;13.374;2023-06-22T03:08:31;21.00;93.30
3356;DHT22;1691;52.486;13.374;2023-06-22T03:10:58;21.10;93.30
3356;DHT22;1691;52.486;13.374;2023-06-22T03:13:26;21.10;93.20
3356;DHT22;1691;52.486;13.374;2023-06-22T03:15:54;21.10;93.20
3356;DHT22;1691;52.486;13.374;2023-06-22T03:18:21;21.10;93.20
3356;DHT22;1691;52.486;13.374;2023-06-22T03:20:49;21.10;93.30
3356;DHT22;1691;52.486;13.374;2023-06-22T03:23:18;21.10;93.20
3356;DHT22;1691;52.486;13.374;2023-06-22T03:25:45;21.10;93.20
3356;DHT22;1691;52.486;13.374;2023-06-22T03:28:12;21.10;93.20
3356;DHT22;1691;52.486;13.374;2023-06-22T03:30:39;21.10;93.30
3356;DHT22;1691;52.486;13.374;2023-06-22T03:33:06;21.10;93.30
3356;DHT22;1691;52.486;13.374;2023-06-22T03:35:33;21.10;93.10
3356;DHT22;1691;52.486;13.374;2023-06-22T03:38:00;21.20;93.00
3356;DHT22;1691;52.486;13.374;2023-06-22T03:40:27;21.20;92.80
3356;DHT22;1691;52.486;13.374;2023-06-22T03:42:55;21.30;92.60
3356;DHT22;1691;52.486;13.374;2023-06-22T03:45:22;21.30;92.30
3356;DHT22;1691;52.486;13.374;2023-06-22T03:47:49;21.40;92.10
3356;DHT22;1691;52.486;13.374;2023-06-22T03:50:17;21.50;91.80
3356;DHT22;1691;52.486;13.374;2023-06-22T03:52:47;21.70;91.50
3356;DHT22;1691;52.486;13.374;2023-06-22T03:55:14;21.90;91.20
3356;DHT22;1691;52.486;13.374;2023-06-22T03:57:41;22.10;90.80
3356;DHT22;1691;52.486;13.374;2023-06-22T04:00:08;22.30;90.30
3356;DHT22;1691;52.486;13.374;2023-06-22T04:02:36;22.50;90.10
3356;DHT22;1691;52.486;13.374;2023-06-22T04:05:04;22.70;89.20
3356;DHT22;1691;52.486;13.374;2023-06-22T04:07:32;22.90;88.20
3356;DHT22;1691;52.486;13.374;2023-06-22T04:09:59;23.10;87.50
3356;DHT22;1691;52.486;13.374;2023-06-22T04:12:26;23.30;86.70
3356;DHT22;1691;52.486;13.374;2023-06-22T04:14:53;23.50;85.80
3356;DHT22;1691;52.486;13.374;2023-06-22T04:17:20;23.70;84.90
3356;DHT22;1691;52.486;13.374;2023-06-22T04:19:47;23.90;83.80
3356;DHT22;1691;52.486;13.374;2023-06-22T04:22:14;24.00;82.30
3356;DHT22;1691;52.486;13.374;2023-06-22T04:24:41;24.20;81.10
3356;DHT22;1691;52.486;13.374;2023-06-22T04:27:08;24.30;79.80
3356;DHT22;1691;52.486;13.374;2023-06-22T04:29:37;24.50;79.10
3356;DHT22;1691;52.486;13.374;2023-06-22T04:32:05;24.70;77.80
3356;DHT22;1691;52.486;13.374;2023-06-22T04:34:32;25.00;76.70
3356;DHT22;1691;52.486;13.374;2023-06-22T04:36:59;25.20;75.40
3356;DHT22;1691;52.486;13.374;2023-06-22T04:39:26;25.50;74.20
3356;DHT22;1691;52.486;13.374;2023-06-22T04:41:54;25.60;73.50
3356;DHT22;1691;52.486;13.374;2023-06-22T04:44:26;25.80;72.80
3356;DHT22;1691;52.486;13.374;2023-06-22T04:46:56;26.00;71.80
3356;DHT22;1691;52.486;13.374;2023-06-22T04:49:29;26.30;71.10
3356;DHT22;1691;52.486;13.374;2023-06-22T04:52:01;26.60;69.80
3356;DHT22;1691;52.486;13.374;2023-06-22T04:54:30;26.80;68.70
3356;DHT22;1691;52.486;13.374;2023-06-22T04:57:04;27.10;67.70
3356;DHT22;1691;52.486;13.374;2023-06-22T04:59:37;27.30;66.40
3356;DHT22;1691;52.486;13.374;2023-06-22T05:02:06;27.40;65.30
3356;DHT22;1691;52.486;13.374;2023-06-22T05:04:33;27.30;64.70
3356;DHT22;1691;52.486;13.374;2023-06-22T05:07:03;27.10;64.40
3356;DHT22;1691;52.486;13.374;2023-06-22T05:09:30;26.90;64.40
3356;DHT22;1691;52.486;13.374;2023-06-22T05:11:58;26.60;64.60
3356;DHT22;1691;52.486;13.374;2023-06-22T05:14:26;26.50;64.70
3356;DHT22;1691;52.486;13.374;2023-06-22T05:16:53;26.30;65.10
3356;DHT22;1691;52.486;13.374;2023-06-22T05:19:20;26.50;65.30
3356;DHT22;1691;52.486;13.374;2023-06-22T05:21:47;26.90;64.20
3356;DHT22;1691;52.486;13.374;2023-06-22T05:24:14;27.10;63.30
3356;DHT22;1691;52.486;13.374;2023-06-22T05:26:41;27.20;62.70
3356;DHT22;1691;52.486;13.374;2023-06-22T05:29:08;27.20;62.50
3356;DHT22;1691;52.486;13.374;2023-06-22T05:31:36;27.20;62.50
3356;DHT22;1691;52.486;13.374;2023-06-22T05:34:03;27.40;62.00
3356;DHT22;1691;52.486;13.374;2023-06-22T05:36:30;27.60;61.00
3356;DHT22;1691;52.486;13.374;2023-06-22T05:38:58;27.60;60.10
3356;DHT22;1691;52.486;13.374;2023-06-22T05:41:25;27.30;60.60
3356;DHT22;1691;52.486;13.374;2023-06-22T05:43:52;27.00;61.20
3356;DHT22;1691;52.486;13.374;2023-06-22T05:46:19;26.90;61.80
3356;DHT22;1691;52.486;13.374;2023-06-22T05:48:46;26.80;62.30
3356;DHT22;1691;52.486;13.374;2023-06-22T05:51:13;26.80;62.30
3356;DHT22;1691;52.486;13.374;2023-06-22T05:53:41;26.80;62.10
3356;DHT22;1691;52.486;13.374;2023-06-22T05:56:08;26.90;61.80
3356;DHT22;1691;52.486;13.374;2023-06-22T05:58:35;27.00;61.40
3356;DHT22;1691;52.486;13.374;2023-06-22T06:01:03;26.90;61.40
3356;DHT22;1691;52.486;13.374;2023-06-22T06:03:30;26.70;62.00
3356;DHT22;1691;52.486;13.374;2023-06-22T06:05:57;26.60;62.70
3356;DHT22;1691;52.486;13.374;2023-06-22T06:08:24;26.90;62.10
3356;DHT22;1691;52.486;13.374;2023-06-22T06:10:51;27.30;61.20
3356;DHT22;1691;52.486;13.374;2023-06-22T06:13:20;27.80;60.10
3356;DHT22;1691;52.486;13.374;2023-06-22T06:15:47;28.20;58.50
3356;DHT22;1691;52.486;13.374;2023-06-22T06:18:14;28.30;57.90
3356;DHT22;1691;52.486;13.374;2023-06-22T06:20:42;28.50;57.50
3356;DHT22;1691;52.486;13.374;2023-06-22T06:23:09;28.70;57.00
3356;DHT22;1691;52.486;13.374;2023-06-22T06:25:36;29.00;56.20
3356;DHT22;1691;52.486;13.374;2023-06-22T06:28:03;29.50;55.30
3356;DHT22;1691;52.486;13.374;2023-06-22T06:30:30;30.10;53.60
3356;DHT22;1691;52.486;13.374;2023-06-22T06:32:58;30.60;52.20
3356;DHT22;1691;52.486;13.374;2023-06-22T06:35:25;31.10;51.00
3356;DHT22;1691;52.486;13.374;2023-06-22T06:37:52;31.70;49.60
3356;DHT22;1691;52.486;13.374;2023-06-22T06:40:20;32.30;48.10
3356;DHT22;1691;52.486;13.374;2023-06-22T06:42:48;32.70;46.70
3356;DHT22;1691;52.486;13.374;2023-06-22T06:45:20;33.00;45.60
3356;DHT22;1691;52.486;13.374;2023-06-22T06:47:52;33.20;45.00
3356;DHT22;1691;52.486;13.374;2023-06-22T06:50:19;33.10;44.70
3356;DHT22;1691;52.486;13.374;2023-06-22T06:52:47;33.30;44.20
3356;DHT22;1691;52.486;13.374;2023-06-22T06:55:14;33.60;43.60
3356;DHT22;1691;52.486;13.374;2023-06-22T06:57:45;33.90;42.70
3356;DHT22;1691;52.486;13.374;2023-06-22T07:00:15;34.10;42.10
3356;DHT22;1691;52.486;13.374;2023-06-22T07:02:44;34.40;41.00
3356;DHT22;1691;52.486;13.374;2023-06-22T07:05:12;34.20;40.70
3356;DHT22;1691;52.486;13.374;2023-06-22T07:07:40;33.80;40.70
3356;DHT22;1691;52.486;13.374;2023-06-22T07:10:09;33.90;41.00
3356;DHT22;1691;52.486;13.374;2023-06-22T07:12:37;34.30;40.20
3356;DHT22;1691;52.486;13.374;2023-06-22T07:15:05;34.90;39.30
3356;DHT22;1691;52.486;13.374;2023-06-22T07:17:37;35.60;38.20
3356;DHT22;1691;52.486;13.374;2023-06-22T07:20:06;36.30;36.90
3356;DHT22;1691;52.486;13.374;2023-06-22T07:22:44;36.70;35.60
3356;DHT22;1691;52.486;13.374;2023-06-22T07:25:11;36.90;35.00
3356;DHT22;1691;52.486;13.374;2023-06-22T07:30:13;37.00;33.50
3356;DHT22;1691;52.486;13.374;2023-06-22T07:32:41;36.70;33.60
3356;DHT22;1691;52.486;13.374;2023-06-22T07:35:08;36.50;33.50
3356;DHT22;1691;52.486;13.374;2023-06-22T07:37:35;36.00;33.90
3356;DHT22;1691;52.486;13.374;2023-06-22T07:40:03;36.00;33.80
3356;DHT22;1691;52.486;13.374;2023-06-22T07:42:33;36.00;33.00
3356;DHT22;1691;52.486;13.374;2023-06-22T07:45:02;35.70;33.00
3356;DHT22;1691;52.486;13.374;2023-06-22T07:47:30;35.20;33.50
3356;DHT22;1691;52.486;13.374;2023-06-22T07:50:00;34.60;33.80
3356;DHT22;1691;52.486;13.374;2023-06-22T07:52:30;34.20;34.50
3356;DHT22;1691;52.486;13.374;2023-06-22T07:54:57;34.00;35.30
3356;DHT22;1691;52.486;13.374;2023-06-22T07:57:24;34.20;35.30
3356;DHT22;1691;52.486;13.374;2023-06-22T08:00:00;34.40;34.90
3356;DHT22;1691;52.486;13.374;2023-06-22T08:02:27;34.10;34.90
3356;DHT22;1691;52.486;13.374;2023-06-22T08:04:54;33.90;35.20
3356;DHT22;1691;52.486;13.374;2023-06-22T08:07:32;33.50;35.30
3356;DHT22;1691;52.486;13.374;2023-06-22T08:10:00;32.90;35.90
3356;DHT22;1691;52.486;13.374;2023-06-22T08:12:27;32.20;37.00
3356;DHT22;1691;52.486;13.374;2023-06-22T08:14:54;31.60;37.90
3356;DHT22;1691;52.486;13.374;2023-06-22T08:17:21;31.40;38.50
3356;DHT22;1691;52.486;13.374;2023-06-22T08:19:48;31.20;39.00
3356;DHT22;1691;52.486;13.374;2023-06-22T08:22:16;31.20;39.30
3356;DHT22;1691;52.486;13.374;2023-06-22T08:24:44;31.20;39.20
3356;DHT22;1691;52.486;13.374;2023-06-22T08:27:11;31.00;39.00
3356;DHT22;1691;52.486;13.374;2023-06-22T08:29:40;30.80;39.30
3356;DHT22;1691;52.486;13.374;2023-06-22T08:32:12;30.70;39.80
3356;DHT22;1691;52.486;13.374;2023-06-22T08:34:39;30.60;40.20
3356;DHT22;1691;52.486;13.374;2023-06-22T08:37:10;30.30;40.70
3356;DHT22;1691;52.486;13.374;2023-06-22T08:57:50;31.50;40.10
3356;DHT22;1691;52.486;13.374;2023-06-22T09:22:50;33.40;35.30
3356;DHT22;1691;52.486;13.374;2023-06-22T09:54:02;32.60;34.90
3356;DHT22;1691;52.486;13.374;2023-06-22T10:02:15;32.20;35.20
3356;DHT22;1691;52.486;13.374;2023-06-22T10:06:11;32.20;35.60
3356;DHT22;1691;52.486;13.374;2023-06-22T10:23:27;34.10;33.50
3356;DHT22;1691;52.486;13.374;2023-06-22T10:26:44;34.30;33.00
3356;DHT22;1691;52.486;13.374;2023-06-22T11:02:32;36.40;29.70
3356;DHT22;1691;52.486;13.374;2023-06-22T11:14:41;33.80;32.40
3356;DHT22;1691;52.486;13.374;2023-06-22T11:42:44;31.90;34.90
3356;DHT22;1691;52.486;13.374;2023-06-22T11:46:45;31.60;35.50
3356;DHT22;1691;52.486;13.374;2023-06-22T11:50:04;31.30;36.10
3356;DHT22;1691;52.486;13.374;2023-06-22T12:05:59;30.70;37.00
3356;DHT22;1691;52.486;13.374;2023-06-22T12:10:15;31.00;36.90
3356;DHT22;1691;52.486;13.374;2023-06-22T12:40:10;30.40;38.20
3356;DHT22;1691;52.486;13.374;2023-06-22T15:21:36;29.80;42.20
3356;DHT22;1691;52.486;13.374;2023-06-22T15:52:20;29.60;43.20
3356;DHT22;1691;52.486;13.374;2023-06-22T16:08:46;29.40;43.90
3356;DHT22;1691;52.486;13.374;2023-06-22T16:16:30;29.40;44.20
3356;DHT22;1691;52.486;13.374;2023-06-22T16:44:58;29.10;45.50
3356;DHT22;1691;52.486;13.374;2023-06-22T16:51:27;28.80;46.20
3356;DHT22;1691;52.486;13.374;2023-06-22T17:57:37;27.80;49.60
3356;DHT22;1691;52.486;13.374;2023-06-22T18:00:05;27.70;49.80
3356;DHT22;1691;52.486;13.374;2023-06-22T18:02:40;27.70;49.90
3356;DHT22;1691;52.486;13.374;2023-06-22T18:05:09;27.60;50.20
3356;DHT22;1691;52.486;13.374;2023-06-22T18:07:37;27.60;50.20
3356;DHT22;1691;52.486;13.374;2023-06-22T18:10:05;27.50;50.40
3356;DHT22;1691;52.486;13.374;2023-06-22T18:12:34;27.40;50.50
3356;DHT22;1691;52.486;13.374;2023-06-22T18:15:02;27.40;50.70
3356;DHT22;1691;52.486;13.374;2023-06-22T18:17:29;27.30;50.90
3356;DHT22;1691;52.486;13.374;2023-06-22T18:19:57;27.30;51.20
3356;DHT22;1691;52.486;13.374;2023-06-22T18:22:26;27.20;51.30
3356;DHT22;1691;52.486;13.374;2023-06-22T18:24:53;27.20;51.30
3356;DHT22;1691;52.486;13.374;2023-06-22T18:27:22;27.10;51.50
3356;DHT22;1691;52.486;13.374;2023-06-22T18:29:50;27.10;51.50
3356;DHT22;1691;52.486;13.374;2023-06-22T18:32:17;27.10;51.60
3356;DHT22;1691;52.486;13.374;2023-06-22T18:34:44;27.10;51.60
3356;DHT22;1691;52.486;13.374;2023-06-22T18:37:15;27.00;51.60
3356;DHT22;1691;52.486;13.374;2023-06-22T18:39:44;27.00;51.80
3356;DHT22;1691;52.486;13.374;2023-06-22T18:42:14;27.00;51.80
3356;DHT22;1691;52.486;13.374;2023-06-22T18:44:42;26.90;51.80
3356;DHT22;1691;52.486;13.374;2023-06-22T18:47:09;26.90;51.90
3356;DHT22;1691;52.486;13.374;2023-06-22T18:54:47;26.70;52.10
3356;DHT22;1691;52.486;13.374;2023-06-22T18:57:22;26.70;52.20
3356;DHT22;1691;52.486;13.374;2023-06-22T19:12:57;26.40;53.00
3356;DHT22;1691;52.486;13.374;2023-06-22T19:15:32;26.40;53.20
3356;DHT22;1691;52.486;13.374;2023-06-22T19:18:22;26.30;53.30
3356;DHT22;1691;52.486;13.374;2023-06-22T19:20:58;26.30;53.30
3356;DHT22;1691;52.486;13.374;2023-06-22T19:23:34;26.20;53.30
3356;DHT22;1691;52.486;13.374;2023-06-22T19:26:07;26.20;53.50
3356;DHT22;1691;52.486;13.374;2023-06-22T19:28:34;26.10;53.50
3356;DHT22;1691;52.486;13.374;2023-06-22T19:31:10;26.10;53.50
3356;DHT22;1691;52.486;13.374;2023-06-22T19:33:38;26.10;53.50
3356;DHT22;1691;52.486;13.374;2023-06-22T19:36:05;26.10;53.30
3356;DHT22;1691;52.486;13.374;2023-06-22T19:38:32;26.00;53.30
3356;DHT22;1691;52.486;13.374;2023-06-22T19:41:00;26.00;53.30
3356;DHT22;1691;52.486;13.374;2023-06-22T19:43:28;26.00;53.30
3356;DHT22;1691;52.486;13.374;2023-06-22T19:45:56;26.00;53.50
3356;DHT22;1691;52.486;13.374;2023-06-22T19:48:28;25.90;53.50
3356;DHT22;1691;52.486;13.374;2023-06-22T19:51:01;25.90;53.60
3356;DHT22;1691;52.486;13.374;2023-06-22T19:53:28;25.90;53.60
3356;DHT22;1691;52.486;13.374;2023-06-22T19:55:55;25.90;53.60
3356;DHT22;1691;52.486;13.374;2023-06-22T19:58:22;25.80;53.60
3356;DHT22;1691;52.486;13.374;2023-06-22T20:00:54;25.80;53.90
3356;DHT22;1691;52.486;13.374;2023-06-22T20:03:42;25.80;54.10
3356;DHT22;1691;52.486;13.374;2023-06-22T20:06:14;25.80;54.70
3356;DHT22;1691;52.486;13.374;2023-06-22T20:08:47;25.70;55.00
3356;DHT22;1691;52.486;13.374;2023-06-22T20:11:15;25.60;55.50
3356;DHT22;1691;52.486;13.374;2023-06-22T20:13:49;25.50;55.90
3356;DHT22;1691;52.486;13.374;2023-06-22T20:16:16;25.40;56.20
3356;DHT22;1691;52.486;13.374;2023-06-22T20:18:44;25.30;56.50
3356;DHT22;1691;52.486;13.374;2023-06-22T20:21:13;25.30;57.20
3356;DHT22;1691;52.486;13.374;2023-06-22T20:23:41;25.10;57.80
3356;DHT22;1691;52.486;13.374;2023-06-22T20:26:11;25.00;58.20
3356;DHT22;1691;52.486;13.374;2023-06-22T20:28:38;24.80;59.00
3356;DHT22;1691;52.486;13.374;2023-06-22T20:31:07;24.70;60.30
3356;DHT22;1691;52.486;13.374;2023-06-22T20:33:35;24.50;62.70
3356;DHT22;1691;52.486;13.374;2023-06-22T20:36:05;24.20;64.60
3356;DHT22;1691;52.486;13.374;2023-06-22T20:38:33;24.00;66.80
3356;DHT22;1691;52.486;13.374;2023-06-22T20:41:02;23.80;69.60
3356;DHT22;1691;52.486;13.374;2023-06-22T20:47:19;22.50;80.20
3356;DHT22;1691;52.486;13.374;2023-06-22T20:49:49;21.50;84.90
3356;DHT22;1691;52.486;13.374;2023-06-22T20:52:16;20.90;89.70
3356;DHT22;1691;52.486;13.374;2023-06-22T20:54:44;20.30;92.10
3356;DHT22;1691;52.486;13.374;2023-06-22T20:57:11;20.00;94.00
3356;DHT22;1691;52.486;13.374;2023-06-22T20:59:38;19.90;95.20
3356;DHT22;1691;52.486;13.374;2023-06-22T21:02:04;19.90;96.20
3356;DHT22;1691;52.486;13.374;2023-06-22T21:04:31;20.00;97.10
3356;DHT22;1691;52.486;13.374;2023-06-22T21:07:02;20.00;97.80
3356;DHT22;1691;52.486;13.374;2023-06-22T21:09:29;20.00;98.40
3356;DHT22;1691;52.486;13.374;2023-06-22T21:12:08;20.00;98.70
3356;DHT22;1691;52.486;13.374;2023-06-22T21:14:35;20.00;98.70
3356;DHT22;1691;52.486;13.374;2023-06-22T21:17:02;19.80;98.70
3356;DHT22;1691;52.486;13.374;2023-06-22T21:19:29;19.70;98.70
3356;DHT22;1691;52.486;13.374;2023-06-22T21:21:56;19.60;98.70
3356;DHT22;1691;52.486;13.374;2023-06-22T21:24:22;19.60;98.70
3356;DHT22;1691;52.486;13.374;2023-06-22T21:26:49;19.50;98.70
3356;DHT22;1691;52.486;13.374;2023-06-22T21:29:16;19.40;98.70
3356;DHT22;1691;52.486;13.374;2023-06-22T21:31:43;19.30;98.70
3356;DHT22;1691;52.486;13.374;2023-06-22T21:34:10;19.20;98.70
3356;DHT22;1691;52.486;13.374;2023-06-22T21:36:37;19.10;98.70
3356;DHT22;1691;52.486;13.374;2023-06-22T21:39:04;19.10;98.70
3356;DHT22;1691;52.486;13.374;2023-06-22T21:41:31;19.10;98.70
3356;DHT22;1691;52.486;13.374;2023-06-22T21:43:57;19.20;98.70
3356;DHT22;1691;52.486;13.374;2023-06-22T21:46:24;19.30;98.70
3356;DHT22;1691;52.486;13.374;2023-06-22T21:48:51;19.30;98.70
3356;DHT22;1691;52.486;13.374;2023-06-22T21:51:18;19.40;98.70
3356;DHT22;1691;52.486;13.374;2023-06-22T21:53:44;19.50;98.70
3356;DHT22;1691;52.486;13.374;2023-06-22T21:56:11;19.50;98.70
3356;DHT22;1691;52.486;13.374;2023-06-22T21:58:38;19.50;98.70
3356;DHT22;1691;52.486;13.374;2023-06-22T22:01:05;19.50;98.70
3356;DHT22;1691;52.486;13.374;2023-06-22T22:03:32;19.50;98.70
3356;DHT22;1691;52.486;13.374;2023-06-22T22:05:59;19.50;98.70
3356;DHT22;1691;52.486;13.374;2023-06-22T22:08:26;19.50;98.70
3356;DHT22;1691;52.486;13.374;2023-06-22T22:10:52;19.40;98.70
3356;DHT22;1691;52.486;13.374;2023-06-22T22:13:19;19.30;98.70
3356;DHT22;1691;52.486;13.374;2023-06-22T22:15:46;19.30;98.70
3356;DHT22;1691;52.486;13.374;2023-06-22T22:18:15;19.20;98.70
3356;DHT22;1691;52.486;13.374;2023-06-22T22:20:42;19.20;98.70
3356;DHT22;1691;52.486;13.374;2023-06-22T22:23:09;19.20;98.70
3356;DHT22;1691;52.486;13.374;2023-06-22T22:25:36;19.10;98.70
3356;DHT22;1691;52.486;13.374;2023-06-22T22:28:02;19.00;98.70
3356;DHT22;1691;52.486;13.374;2023-06-22T22:30:29;18.90;98.70
3356;DHT22;1691;52.486;13.374;2023-06-22T22:32:56;18.80;98.70
3356;DHT22;1691;52.486;13.374;2023-06-22T22:35:23;18.70;98.70
3356;DHT22;1691;52.486;13.374;2023-06-22T22:37:50;18.70;98.70
3356;DHT22;1691;52.486;13.374;2023-06-22T22:40:17;18.60;98.70
3356;DHT22;1691;52.486;13.374;2023-06-22T22:42:43;18.50;98.70
3356;DHT22;1691;52.486;13.374;2023-06-22T22:45:10;18.50;98.70
3356;DHT22;1691;52.486;13.374;2023-06-22T22:47:37;18.40;98.70
3356;DHT22;1691;52.486;13.374;2023-06-22T22:50:04;18.30;98.70
3356;DHT22;1691;52.486;13.374;2023-06-22T22:52:33;18.30;98.70
3356;DHT22;1691;52.486;13.374;2023-06-22T22:55:05;18.20;98.70
3356;DHT22;1691;52.486;13.374;2023-06-22T22:57:34;18.20;98.70
3356;DHT22;1691;52.486;13.374;2023-06-22T23:00:01;18.20;98.70
3356;DHT22;1691;52.486;13.374;2023-06-22T23:02:27;18.10;98.70
3356;DHT22;1691;52.486;13.374;2023-06-22T23:04:56;18.10;98.70
3356;DHT22;1691;52.486;13.374;2023-06-22T23:07:23;18.00;98.70
3356;DHT22;1691;52.486;13.374;2023-06-22T23:09:50;17.90;98.70
3356;DHT22;1691;52.486;13.374;2023-06-22T23:12:17;17.90;98.70
3356;DHT22;1691;52.486;13.374;2023-06-22T23:14:44;17.90;98.70
3356;DHT22;1691;52.486;13.374;2023-06-22T23:17:11;17.90;98.70
3356;DHT22;1691;52.486;13.374;2023-06-22T23:19:37;17.80;98.70
3356;DHT22;1691;52.486;13.374;2023-06-22T23:22:05;17.80;98.70
3356;DHT22;1691;52.486;13.374;2023-06-22T23:24:33;17.70;98.70
3356;DHT22;1691;52.486;13.374;2023-06-22T23:26:59;17.70;98.70
3356;DHT22;1691;52.486;13.374;2023-06-22T23:29:27;17.70;98.70
3356;DHT22;1691;52.486;13.374;2023-06-22T23:31:54;17.70;98.70
3356;DHT22;1691;52.486;13.374;2023-06-22T23:34:21;17.60;98.70
3356;DHT22;1691;52.486;13.374;2023-06-22T23:36:48;17.60;98.70
3356;DHT22;1691;52.486;13.374;2023-06-22T23:39:15;17.60;98.70
3356;DHT22;1691;52.486;13.374;2023-06-22T23:41:45;17.50;98.70
3356;DHT22;1691;52.486;13.374;2023-06-22T23:44:12;17.50;98.70
3356;DHT22;1691;52.486;13.374;2023-06-22T23:46:39;17.50;98.70
3356;DHT22;1691;52.486;13.374;2023-06-22T23:49:06;17.50;98.70
3356;DHT22;1691;52.486;13.374;2023-06-22T23:51:34;17.50;98.70
3356;DHT22;1691;52.486;13.374;2023-06-22T23:54:03;17.50;98.70
3356;DHT22;1691;52.486;13.374;2023-06-22T23:56:30;17.50;98.70
3356;DHT22;1691;52.486;13.374;2023-06-22T23:58:57;17.50;98.70
